Time;durP1;ratioP1;P1;durP2;ratioP2;P2;SDS_P1;SDS_P2;PMS_P1;PMS_P2;Temp;Humidity;BMP_temperature;BMP_pressure;BME280_temperature;BME280_humidity;BME280_pressure;Samples;Min_cycle;Max_cycle;Signal;HPM_P1;HPM_P2
2023/06/22 00:00:50;;;;;;;;;17.33;15.00;;;;;;;;4994058;28;9005;-79
2023/06/22 00:03:15;;;;;;;;;12.33;12.00;;;;;;;;5011975;28;9033;-79
2023/06/22 00:05:40;;;;;;;;;18.00;18.00;;;;;;;;5009729;28;8804;-79
2023/06/22 00:08:06;;;;;;;;;17.67;17.67;;;;;;;;5011819;28;8890;-80
2023/06/22 00:10:31;;;;;;;;;15.00;14.00;;;;;;;;5011460;28;8796;-79
2023/06/22 00:12:56;;;;;;;;;16.67;15.33;;;;;;;;5011450;28;8809;-79
2023/06/22 00:15:22;;;;;;;;;16.00;15.00;;;;;;;;5010777;28;8823;-79
2023/06/22 00:17:47;;;;;;;;;15.00;12.67;;;;;;;;5011473;28;8934;-81
2023/06/22 00:20:14;;;;;;;;;15.33;15.33;;;;;;;;5011800;28;8827;-78
2023/06/22 00:22:39;;;;;;;;;20.00;16.00;;;;;;;;5016032;28;8812;-80
2023/06/22 00:25:06;;;;;;;;;17.67;16.67;;;;;;;;5022332;28;9125;-79
2023/06/22 00:27:31;;;;;;;;;14.00;13.67;;;;;;;;5012560;28;8784;-80
2023/06/22 00:29:56;;;;;;;;;17.67;16.33;;;;;;;;4993478;28;9169;-79
2023/06/22 00:32:22;;;;;;;;;16.67;15.00;;;;;;;;5011381;28;8773;-78
2023/06/22 00:34:47;;;;;;;;;16.00;14.67;;;;;;;;4994145;28;8785;-78
2023/06/22 00:37:13;;;;;;;;;17.67;16.00;;;;;;;;5020409;28;8820;-79
2023/06/22 00:39:38;;;;;;;;;16.33;14.33;;;;;;;;5023903;28;8804;-78
2023/06/22 00:42:04;;;;;;;;;18.33;15.00;;;;;;;;5013208;28;8874;-80
2023/06/22 00:44:29;;;;;;;;;16.33;15.00;;;;;;;;5012549;28;9573;-78
2023/06/22 00:46:54;;;;;;;;;12.33;12.00;;;;;;;;5012121;28;8800;-79
2023/06/22 00:49:20;;;;;;;;;17.00;15.67;;;;;;;;5011191;28;8850;-78
2023/06/22 00:51:47;;;;;;;;;14.00;14.00;;;;;;;;4993463;28;8889;-80
2023/06/22 00:54:13;;;;;;;;;16.67;15.67;;;;;;;;5012199;28;8819;-80
2023/06/22 00:56:39;;;;;;;;;16.00;14.00;;;;;;;;5014480;28;9236;-80
2023/06/22 00:59:04;;;;;;;;;12.67;12.67;;;;;;;;4995757;28;8791;-79
2023/06/22 01:01:29;;;;;;;;;15.67;14.67;;;;;;;;4973683;28;11479;-80
2023/06/22 01:03:57;;;;;;;;;13.67;13.00;;;;;;;;4974347;28;8818;-78
2023/06/22 01:06:34;;;;;;;;;14.33;14.33;;;;;;;;4974457;28;8807;-80
2023/06/22 01:09:09;;;;;;;;;15.67;14.33;;;;;;;;4991471;28;9278;-78
2023/06/22 01:11:42;;;;;;;;;16.00;14.33;;;;;;;;4991389;28;9280;-79
2023/06/22 01:14:15;;;;;;;;;14.75;14.00;;;;;;;;4993102;28;9232;-80
2023/06/22 01:16:42;;;;;;;;;16.75;15.75;;;;;;;;5011316;28;9430;-79
2023/06/22 01:19:28;;;;;;;;;15.33;15.00;;;;;;;;5010758;28;9510;-78
2023/06/22 01:21:55;;;;;;;;;13.67;12.67;;;;;;;;4993999;28;9291;-78
2023/06/22 01:24:28;;;;;;;;;12.67;12.00;;;;;;;;5011087;28;9377;-78
2023/06/22 01:27:12;;;;;;;;;17.00;16.00;;;;;;;;5011194;28;9207;-78
2023/06/22 01:29:38;;;;;;;;;15.67;14.00;;;;;;;;5011628;28;9321;-78
2023/06/22 01:32:05;;;;;;;;;16.00;14.00;;;;;;;;5010959;28;9186;-78
2023/06/22 01:34:32;;;;;;;;;16.00;14.00;;;;;;;;5011108;28;9266;-76
2023/06/22 01:36:57;;;;;;;;;16.25;14.00;;;;;;;;5010386;28;9560;-78
2023/06/22 01:39:23;;;;;;;;;17.50;16.25;;;;;;;;5011112;28;9551;-82
2023/06/22 01:41:48;;;;;;;;;17.00;15.00;;;;;;;;4992585;28;8877;-82
2023/06/22 01:44:14;;;;;;;;;13.00;12.33;;;;;;;;5011589;28;8919;-82
2023/06/22 01:46:39;;;;;;;;;15.00;14.00;;;;;;;;5013253;28;8800;-82
2023/06/22 01:49:06;;;;;;;;;18.00;15.33;;;;;;;;5011277;28;8839;-80
2023/06/22 01:51:31;;;;;;;;;14.33;11.00;;;;;;;;5010377;28;8822;-81
2023/06/22 01:53:56;;;;;;;;;14.00;13.00;;;;;;;;5010218;28;9149;-79
2023/06/22 01:56:22;;;;;;;;;14.00;13.33;;;;;;;;5010590;28;8882;-80
2023/06/22 01:59:06;;;;;;;;;14.00;14.00;;;;;;;;5010179;28;8793;-79
2023/06/22 02:01:38;;;;;;;;;13.00;13.00;;;;;;;;5010057;28;8835;-79
2023/06/22 02:04:08;;;;;;;;;14.75;13.50;;;;;;;;5010206;28;9181;-80
2023/06/22 02:06:36;;;;;;;;;15.67;15.00;;;;;;;;5010043;28;10140;-79
2023/06/22 02:09:03;;;;;;;;;13.00;11.33;;;;;;;;5013934;28;9272;-81
2023/06/22 02:11:30;;;;;;;;;16.33;12.67;;;;;;;;5013774;28;8966;-81
2023/06/22 02:13:57;;;;;;;;;15.00;15.00;;;;;;;;5014069;28;9037;-81
2023/06/22 02:16:22;;;;;;;;;14.33;13.00;;;;;;;;4996137;28;9180;-81
2023/06/22 02:18:50;;;;;;;;;16.00;14.00;;;;;;;;5013954;28;10005;-81
2023/06/22 02:21:16;;;;;;;;;17.33;14.67;;;;;;;;5013709;28;9000;-82
2023/06/22 02:23:41;;;;;;;;;14.33;14.00;;;;;;;;5013124;28;9328;-81
2023/06/22 02:26:06;;;;;;;;;14.67;14.33;;;;;;;;5013458;28;8800;-81
2023/06/22 02:28:31;;;;;;;;;15.00;14.67;;;;;;;;5013316;28;8796;-81
2023/06/22 02:30:57;;;;;;;;;15.00;13.50;;;;;;;;5013251;28;8808;-82
2023/06/22 02:33:22;;;;;;;;;13.00;12.00;;;;;;;;5013178;28;8793;-82
2023/06/22 02:35:48;;;;;;;;;16.33;14.00;;;;;;;;5013040;28;8784;-83
2023/06/22 02:38:19;;;;;;;;;15.00;13.00;;;;;;;;4995701;28;8978;-84
2023/06/22 02:40:44;;;;;;;;;14.00;11.67;;;;;;;;5012508;28;9302;-82
2023/06/22 02:43:09;;;;;;;;;12.00;11.67;;;;;;;;5013688;28;9220;-82
2023/06/22 02:45:35;;;;;;;;;11.00;11.00;;;;;;;;5019980;28;8913;-81
2023/06/22 02:48:00;;;;;;;;;15.67;14.00;;;;;;;;5020952;28;8826;-81
2023/06/22 02:50:25;;;;;;;;;14.00;14.00;;;;;;;;5014697;28;8808;-82
2023/06/22 02:52:50;;;;;;;;;13.25;13.25;;;;;;;;5014581;28;8882;-81
2023/06/22 02:55:16;;;;;;;;;16.25;13.00;;;;;;;;5029913;28;8826;-82
2023/06/22 02:57:43;;;;;;;;;14.00;14.00;;;;;;;;5021153;28;8789;-81
2023/06/22 03:00:16;;;;;;;;;14.00;14.00;;;;;;;;5013349;28;8835;-81
2023/06/22 03:02:42;;;;;;;;;12.67;11.33;;;;;;;;5013474;28;9287;-81
2023/06/22 03:05:13;;;;;;;;;13.00;12.67;;;;;;;;5013120;28;9202;-81
2023/06/22 03:07:42;;;;;;;;;14.33;12.00;;;;;;;;4995444;28;8927;-82
2023/06/22 03:10:09;;;;;;;;;13.00;11.67;;;;;;;;5013161;28;9581;-81
2023/06/22 03:12:34;;;;;;;;;14.33;13.00;;;;;;;;5013512;28;9261;-80
2023/06/22 03:14:59;;;;;;;;;15.33;14.67;;;;;;;;5013194;28;9282;-79
2023/06/22 03:17:25;;;;;;;;;11.67;11.67;;;;;;;;5010893;28;8811;-78
2023/06/22 03:19:50;;;;;;;;;14.33;13.00;;;;;;;;5011996;28;8819;-77
2023/06/22 03:22:15;;;;;;;;;15.00;14.00;;;;;;;;4995011;28;8808;-78
2023/06/22 03:24:40;;;;;;;;;13.00;13.00;;;;;;;;5012768;28;8819;-79
2023/06/22 03:27:06;;;;;;;;;12.33;12.33;;;;;;;;5012834;28;8799;-80
2023/06/22 03:29:31;;;;;;;;;18.75;14.00;;;;;;;;5012324;28;8816;-79
2023/06/22 03:31:56;;;;;;;;;14.33;13.67;;;;;;;;5020523;28;8855;-78
2023/06/22 03:34:21;;;;;;;;;15.00;13.00;;;;;;;;5014700;28;8808;-78
2023/06/22 03:36:47;;;;;;;;;14.00;14.00;;;;;;;;5011992;28;8812;-78
2023/06/22 03:39:12;;;;;;;;;16.75;14.75;;;;;;;;5012710;28;8780;-78
2023/06/22 03:41:38;;;;;;;;;14.50;14.50;;;;;;;;5011926;28;8894;-78
2023/06/22 03:44:04;;;;;;;;;16.50;14.25;;;;;;;;5012001;28;8808;-79
2023/06/22 03:46:29;;;;;;;;;13.00;12.67;;;;;;;;5012191;28;8792;-78
2023/06/22 03:48:54;;;;;;;;;17.25;13.75;;;;;;;;5012084;28;8788;-78
2023/06/22 03:51:19;;;;;;;;;13.00;12.00;;;;;;;;5012576;28;8915;-79
2023/06/22 03:53:45;;;;;;;;;14.50;14.50;;;;;;;;5012257;28;8788;-81
2023/06/22 03:56:10;;;;;;;;;13.25;13.25;;;;;;;;5013385;28;8816;-80
2023/06/22 03:58:36;;;;;;;;;16.00;14.00;;;;;;;;5012939;28;8784;-81
2023/06/22 04:01:02;;;;;;;;;16.75;15.00;;;;;;;;5005727;28;8885;-78
2023/06/22 04:03:27;;;;;;;;;14.50;14.50;;;;;;;;4992634;28;9650;-78
2023/06/22 04:05:52;;;;;;;;;17.25;13.75;;;;;;;;4992375;28;9482;-79
2023/06/22 07:34:27;;;;;;;;;19.00;16.00;;;;;;;;5103263;27;13446;-72
2023/06/22 07:36:52;;;;;;;;;14.67;12.00;;;;;;;;5106944;28;8829;-72
2023/06/22 07:39:25;;;;;;;;;17.67;16.00;;;;;;;;5106578;28;8841;-73
2023/06/22 07:41:50;;;;;;;;;17.00;17.00;;;;;;;;5099838;28;8807;-71
2023/06/22 07:44:16;;;;;;;;;18.00;16.33;;;;;;;;5090527;28;8857;-70
2023/06/22 07:46:41;;;;;;;;;14.33;13.33;;;;;;;;5099019;27;8839;-71
2023/06/22 07:49:09;;;;;;;;;14.67;13.67;;;;;;;;5111850;28;8816;-73
2023/06/22 07:51:52;;;;;;;;;20.50;16.00;;;;;;;;5084433;28;8810;-71
2023/06/22 07:54:17;;;;;;;;;15.00;15.00;;;;;;;;5085965;28;8830;-70
2023/06/22 07:56:43;;;;;;;;;15.67;14.33;;;;;;;;5091807;28;8807;-72
2023/06/22 07:59:11;;;;;;;;;18.00;16.67;;;;;;;;5119188;28;8792;-72
2023/06/22 08:01:36;;;;;;;;;18.00;17.00;;;;;;;;5098927;27;8809;-73
2023/06/22 08:04:01;;;;;;;;;6.00;4.67;;;;;;;;5118059;28;8846;-73
2023/06/22 08:06:26;;;;;;;;;17.67;16.33;;;;;;;;5106453;28;8815;-73
2023/06/22 08:08:54;;;;;;;;;17.33;16.00;;;;;;;;5106386;28;8943;-72
2023/06/22 08:11:22;;;;;;;;;14.00;13.00;;;;;;;;5105830;28;8830;-69
2023/06/22 08:13:47;;;;;;;;;17.50;14.25;;;;;;;;5104162;28;8898;-69
2023/06/22 08:16:13;;;;;;;;;19.00;17.67;;;;;;;;5106142;28;8788;-70
2023/06/22 08:18:38;;;;;;;;;16.67;16.67;;;;;;;;5109684;27;8801;-69
2023/06/22 08:21:03;;;;;;;;;16.67;16.67;;;;;;;;5126373;27;8884;-72
2023/06/22 08:23:28;;;;;;;;;17.33;14.67;;;;;;;;5122911;27;8789;-69
2023/06/22 08:25:54;;;;;;;;;19.33;19.33;;;;;;;;5105627;28;8819;-69
2023/06/22 08:28:19;;;;;;;;;17.67;15.67;;;;;;;;5105690;28;8796;-73
2023/06/22 08:30:44;;;;;;;;;17.00;17.00;;;;;;;;5105921;28;8826;-73
2023/06/22 08:33:10;;;;;;;;;16.33;15.67;;;;;;;;5105272;28;9610;-71
2023/06/22 08:35:35;;;;;;;;;15.67;15.67;;;;;;;;5103992;28;9557;-70
2023/06/22 08:38:01;;;;;;;;;17.67;15.00;;;;;;;;5105588;28;8804;-71
2023/06/22 08:40:27;;;;;;;;;17.75;15.25;;;;;;;;5105289;28;8808;-71
2023/06/22 08:42:52;;;;;;;;;14.67;14.00;;;;;;;;5105267;28;8814;-72
2023/06/22 08:45:18;;;;;;;;;15.00;15.00;;;;;;;;5095346;28;8830;-73
2023/06/22 08:47:43;;;;;;;;;13.67;13.00;;;;;;;;5086852;28;8808;-72
2023/06/22 08:50:09;;;;;;;;;14.33;14.33;;;;;;;;5092804;28;8803;-72
2023/06/22 08:52:35;;;;;;;;;17.75;16.00;;;;;;;;5091091;28;8819;-72
2023/06/22 08:55:00;;;;;;;;;15.00;15.00;;;;;;;;5089794;28;9577;-72
2023/06/22 08:57:26;;;;;;;;;13.00;13.00;;;;;;;;5091695;28;8838;-69
2023/06/22 08:59:58;;;;;;;;;15.25;14.25;;;;;;;;5091690;28;8796;-71
2023/06/22 09:02:23;;;;;;;;;16.75;14.75;;;;;;;;5091558;28;8784;-68
2023/06/22 09:04:49;;;;;;;;;16.67;15.00;;;;;;;;5089946;28;8812;-69
2023/06/22 09:07:14;;;;;;;;;16.25;13.50;;;;;;;;5091552;28;9502;-71
2023/06/22 09:09:40;;;;;;;;;18.00;16.33;;;;;;;;5091041;28;8807;-70
2023/06/22 09:12:05;;;;;;;;;15.67;15.00;;;;;;;;5091249;28;8914;-70
2023/06/22 09:14:31;;;;;;;;;14.00;13.33;;;;;;;;5089701;28;8804;-72
2023/06/22 09:16:56;;;;;;;;;16.00;14.67;;;;;;;;5091372;28;8824;-69
2023/06/22 09:19:21;;;;;;;;;15.67;15.00;;;;;;;;5100949;28;9024;-71
2023/06/22 09:21:47;;;;;;;;;14.00;14.00;;;;;;;;5111324;28;8809;-71
2023/06/22 09:24:12;;;;;;;;;13.00;13.00;;;;;;;;5102090;28;8830;-72
2023/06/22 09:26:37;;;;;;;;;15.00;12.33;;;;;;;;5091096;28;8811;-72
2023/06/22 09:29:05;;;;;;;;;19.67;18.33;;;;;;;;5091103;28;8915;-72
2023/06/22 09:31:30;;;;;;;;;15.25;15.25;;;;;;;;5091178;28;8905;-72
2023/06/22 09:33:55;;;;;;;;;15.00;15.00;;;;;;;;5090600;28;8847;-72
2023/06/22 09:36:21;;;;;;;;;43.67;36.33;;;;;;;;5089175;28;8803;-72
2023/06/22 09:38:47;;;;;;;;;21.67;18.33;;;;;;;;5085987;28;8900;-72
2023/06/22 09:41:12;;;;;;;;;17.67;16.67;;;;;;;;5090586;28;8861;-73
2023/06/22 09:43:37;;;;;;;;;16.00;15.67;;;;;;;;5090574;28;8815;-75
2023/06/22 09:46:02;;;;;;;;;65.75;55.50;;;;;;;;5084535;28;8980;-74
2023/06/22 09:48:29;;;;;;;;;28.00;25.00;;;;;;;;5078786;28;8815;-74
2023/06/22 09:50:54;;;;;;;;;17.75;16.00;;;;;;;;5110365;28;8936;-74
2023/06/22 09:53:19;;;;;;;;;17.33;15.67;;;;;;;;5110535;28;9067;-75
2023/06/22 09:55:45;;;;;;;;;20.33;20.33;;;;;;;;5109442;28;8901;-75
2023/06/22 09:58:10;;;;;;;;;16.67;16.00;;;;;;;;5110348;28;8836;-75
2023/06/22 10:00:35;;;;;;;;;14.00;14.00;;;;;;;;5111050;28;8809;-74
2023/06/22 10:03:00;;;;;;;;;12.67;12.67;;;;;;;;5110770;28;8786;-74
2023/06/22 10:05:26;;;;;;;;;14.00;14.00;;;;;;;;5110752;28;8851;-74
2023/06/22 10:07:51;;;;;;;;;10.67;10.67;;;;;;;;5111100;28;8870;-77
2023/06/22 10:10:16;;;;;;;;;12.00;12.00;;;;;;;;5110357;28;8813;-72
2023/06/22 10:12:44;;;;;;;;;11.00;11.00;;;;;;;;5110661;28;8825;-73
2023/06/22 10:15:10;;;;;;;;;10.75;10.00;;;;;;;;5100590;28;8831;-72
2023/06/22 10:17:35;;;;;;;;;12.00;10.00;;;;;;;;5093059;28;8797;-73
2023/06/22 10:20:05;;;;;;;;;10.00;9.67;;;;;;;;5106997;28;8833;-71
2023/06/22 10:22:31;;;;;;;;;11.25;11.00;;;;;;;;5109168;28;9555;-74
2023/06/22 10:24:56;;;;;;;;;11.00;9.33;;;;;;;;5109559;28;8810;-73
2023/06/22 10:27:21;;;;;;;;;11.00;11.00;;;;;;;;5110538;28;9484;-73
2023/06/22 10:29:46;;;;;;;;;12.00;11.00;;;;;;;;5106911;28;8940;-71
2023/06/22 10:32:12;;;;;;;;;11.67;10.33;;;;;;;;5110091;28;8789;-72
2023/06/22 10:34:37;;;;;;;;;11.67;11.67;;;;;;;;5109776;28;8785;-71
2023/06/22 10:37:02;;;;;;;;;11.33;11.33;;;;;;;;5110148;28;8789;-71
2023/06/22 10:39:28;;;;;;;;;10.00;10.00;;;;;;;;5104767;28;8852;-70
2023/06/22 10:41:53;;;;;;;;;11.00;10.00;;;;;;;;5088433;28;8804;-72
2023/06/22 10:44:18;;;;;;;;;14.00;13.00;;;;;;;;5089238;28;8834;-72
2023/06/22 10:46:44;;;;;;;;;12.33;11.33;;;;;;;;5089841;28;8792;-72
2023/06/22 10:49:09;;;;;;;;;10.67;10.33;;;;;;;;5093315;28;9650;-74
2023/06/22 10:51:35;;;;;;;;;11.00;9.33;;;;;;;;5108097;28;8813;-72
2023/06/22 10:54:00;;;;;;;;;10.33;10.33;;;;;;;;5107948;28;8940;-72
2023/06/22 10:56:25;;;;;;;;;11.00;10.00;;;;;;;;5109072;28;8797;-72
2023/06/22 10:58:51;;;;;;;;;11.00;11.00;;;;;;;;5100703;28;8832;-72
2023/06/22 11:01:17;;;;;;;;;11.33;11.00;;;;;;;;5105513;28;8885;-75
2023/06/22 11:03:43;;;;;;;;;8.75;8.50;;;;;;;;5109791;28;8793;-72
2023/06/22 11:06:08;;;;;;;;;10.67;9.67;;;;;;;;5108857;28;8805;-72
2023/06/22 11:08:33;;;;;;;;;13.67;12.33;;;;;;;;5109101;28;8794;-75
2023/06/22 11:10:58;;;;;;;;;11.00;11.00;;;;;;;;5091155;28;8788;-72
2023/06/22 11:13:24;;;;;;;;;12.33;12.00;;;;;;;;5089064;28;8908;-73
2023/06/22 11:15:50;;;;;;;;;11.25;11.25;;;;;;;;5088654;28;8812;-78
2023/06/22 11:18:15;;;;;;;;;11.00;10.67;;;;;;;;5089989;28;8818;-73
2023/06/22 11:20:40;;;;;;;;;14.00;11.33;;;;;;;;5093901;28;8823;-80
2023/06/22 11:23:08;;;;;;;;;10.67;10.67;;;;;;;;5089612;28;8812;-80
2023/06/22 11:25:38;;;;;;;;;11.75;10.75;;;;;;;;5087865;28;8848;-73
2023/06/22 11:28:04;;;;;;;;;14.50;12.50;;;;;;;;5081758;28;8836;-73
2023/06/22 11:30:29;;;;;;;;;10.67;10.67;;;;;;;;5078125;28;8816;-73
2023/06/22 11:32:56;;;;;;;;;13.33;13.00;;;;;;;;5088880;28;8836;-72
2023/06/22 11:35:21;;;;;;;;;12.50;12.25;;;;;;;;5088597;28;8878;-72
2023/06/22 11:37:46;;;;;;;;;10.67;10.67;;;;;;;;5088873;28;8819;-72
2023/06/22 11:40:12;;;;;;;;;10.00;10.00;;;;;;;;5087045;28;9562;-72
2023/06/22 11:42:37;;;;;;;;;11.33;10.00;;;;;;;;5088915;28;8831;-72
2023/06/22 11:45:04;;;;;;;;;11.33;11.33;;;;;;;;5088577;28;8912;-72
2023/06/22 11:47:30;;;;;;;;;12.75;12.75;;;;;;;;5087573;28;8834;-72
2023/06/22 11:49:55;;;;;;;;;13.33;12.00;;;;;;;;5092625;28;8828;-71
2023/06/22 11:52:21;;;;;;;;;17.33;11.33;;;;;;;;5088716;28;8980;-72
2023/06/22 11:54:46;;;;;;;;;11.33;11.00;;;;;;;;5088300;28;9200;-73
2023/06/22 11:57:12;;;;;;;;;12.33;12.33;;;;;;;;5082416;28;8928;-74
2023/06/22 11:59:37;;;;;;;;;11.00;11.00;;;;;;;;5077363;28;8818;-75
2023/06/22 12:02:03;;;;;;;;;13.67;13.67;;;;;;;;5068840;28;8811;-74
2023/06/22 12:04:38;;;;;;;;;11.25;10.50;;;;;;;;5068633;28;8798;-78
2023/06/22 12:07:03;;;;;;;;;15.25;13.50;;;;;;;;5089040;28;8940;-73
2023/06/22 12:09:29;;;;;;;;;10.33;9.00;;;;;;;;5091664;28;8803;-71
2023/06/22 12:11:54;;;;;;;;;12.33;11.00;;;;;;;;5088750;28;8792;-74
2023/06/22 12:14:19;;;;;;;;;13.33;12.00;;;;;;;;5088593;28;8929;-73
2023/06/22 12:16:45;;;;;;;;;11.33;11.33;;;;;;;;5088587;28;8811;-72
2023/06/22 12:19:11;;;;;;;;;14.67;14.67;;;;;;;;5093838;28;8837;-71
2023/06/22 12:21:37;;;;;;;;;13.33;11.00;;;;;;;;5112824;28;8831;-71
2023/06/22 12:24:02;;;;;;;;;11.00;10.50;;;;;;;;5112825;28;8785;-72
2023/06/22 12:26:27;;;;;;;;;9.00;9.00;;;;;;;;5111971;28;8857;-73
2023/06/22 12:28:52;;;;;;;;;12.67;11.00;;;;;;;;5109348;28;8817;-73
2023/06/22 12:31:18;;;;;;;;;9.00;9.00;;;;;;;;5113089;28;8912;-73
2023/06/22 12:33:43;;;;;;;;;9.33;9.00;;;;;;;;5112731;27;8833;-73
2023/06/22 12:36:08;;;;;;;;;10.00;9.33;;;;;;;;5111229;28;9517;-75
2023/06/22 12:38:34;;;;;;;;;9.33;9.00;;;;;;;;5112046;28;8793;-75
2023/06/22 12:40:59;;;;;;;;;10.00;10.00;;;;;;;;5105286;28;8812;-75
2023/06/22 12:43:25;;;;;;;;;8.50;7.25;;;;;;;;5094510;28;8822;-76
2023/06/22 12:45:50;;;;;;;;;10.67;10.00;;;;;;;;5096640;28;8799;-76
2023/06/22 12:48:16;;;;;;;;;7.33;6.00;;;;;;;;5085937;28;8818;-73
2023/06/22 12:50:42;;;;;;;;;7.60;6.40;;;;;;;;5099014;28;8818;-80
2023/06/22 12:53:07;;;;;;;;;7.00;7.00;;;;;;;;5091797;28;8823;-74
2023/06/22 12:55:33;;;;;;;;;9.00;7.67;;;;;;;;5107537;28;8821;-73
2023/06/22 12:57:58;;;;;;;;;8.25;6.00;;;;;;;;5112208;28;8812;-75
2023/06/22 13:00:24;;;;;;;;;11.00;8.00;;;;;;;;5110904;28;8885;-74
2023/06/22 13:02:49;;;;;;;;;9.75;7.00;;;;;;;;5091871;28;8792;-77
2023/06/22 13:05:20;;;;;;;;;5.50;3.00;;;;;;;;5100349;28;8797;-70
2023/06/22 13:07:45;;;;;;;;;7.00;4.80;;;;;;;;5094933;28;8792;-67
2023/06/22 13:10:11;;;;;;;;;16.00;14.00;;;;;;;;5097540;28;8792;-76
2023/06/22 13:12:36;;;;;;;;;11.67;9.00;;;;;;;;5112155;28;9580;-75
2023/06/22 13:15:03;;;;;;;;;14.33;13.67;;;;;;;;5102413;28;8804;-76
2023/06/22 13:17:28;;;;;;;;;10.00;10.00;;;;;;;;5100321;28;8831;-77
2023/06/22 13:19:53;;;;;;;;;13.00;12.00;;;;;;;;5103094;28;8795;-77
2023/06/22 13:22:29;;;;;;;;;13.33;13.33;;;;;;;;5100394;28;9654;-76
2023/06/22 13:24:54;;;;;;;;;7.25;7.25;;;;;;;;5100216;28;8797;-77
2023/06/22 13:27:23;;;;;;;;;8.00;7.67;;;;;;;;5101395;28;8935;-76
2023/06/22 13:29:48;;;;;;;;;10.75;9.75;;;;;;;;5098269;28;8832;-78
2023/06/22 13:32:14;;;;;;;;;9.67;9.00;;;;;;;;5100136;28;8820;-77
2023/06/22 13:34:39;;;;;;;;;10.33;9.33;;;;;;;;5100799;28;8782;-77
2023/06/22 13:37:05;;;;;;;;;14.00;10.67;;;;;;;;5101764;28;8804;-78
2023/06/22 13:39:30;;;;;;;;;11.00;8.33;;;;;;;;5098005;28;8828;-77
2023/06/22 13:41:56;;;;;;;;;8.00;8.00;;;;;;;;5097677;28;11483;-78
2023/06/22 13:44:22;;;;;;;;;9.33;9.33;;;;;;;;5093569;28;8818;-76
2023/06/22 13:46:47;;;;;;;;;11.00;11.00;;;;;;;;5098126;28;8917;-77
2023/06/22 13:49:12;;;;;;;;;12.00;10.00;;;;;;;;5101990;28;8780;-77
2023/06/22 13:51:38;;;;;;;;;9.67;8.00;;;;;;;;5100426;28;8781;-78
2023/06/22 13:54:03;;;;;;;;;15.00;10.33;;;;;;;;5107107;28;8943;-76
2023/06/22 13:56:28;;;;;;;;;9.33;8.33;;;;;;;;5109161;28;8770;-75
2023/06/22 13:58:53;;;;;;;;;4.00;4.00;;;;;;;;5090684;28;8938;-75
2023/06/22 14:01:19;;;;;;;;;10.00;9.33;;;;;;;;5090166;28;8809;-78
2023/06/22 14:03:46;;;;;;;;;10.33;6.00;;;;;;;;5090173;28;8792;-75
2023/06/22 14:06:12;;;;;;;;;6.25;6.25;;;;;;;;5090441;28;8788;-76
2023/06/22 14:08:37;;;;;;;;;11.33;10.00;;;;;;;;5090111;28;8905;-78
2023/06/22 14:11:03;;;;;;;;;10.00;8.00;;;;;;;;5081743;28;8857;-76
2023/06/22 14:13:28;;;;;;;;;9.33;9.33;;;;;;;;5085567;28;8816;-75
2023/06/22 14:15:54;;;;;;;;;8.00;8.00;;;;;;;;5101169;28;8817;-77
2023/06/22 14:18:19;;;;;;;;;9.33;9.33;;;;;;;;5101647;28;8808;-77
2023/06/22 14:20:44;;;;;;;;;8.67;8.67;;;;;;;;5102496;28;8792;-77
2023/06/22 14:23:10;;;;;;;;;8.00;8.00;;;;;;;;5099301;28;8808;-75
2023/06/22 14:25:35;;;;;;;;;12.67;10.33;;;;;;;;5100205;28;8793;-77
2023/06/22 14:28:00;;;;;;;;;8.33;7.00;;;;;;;;5109634;28;8805;-72
2023/06/22 14:30:26;;;;;;;;;8.33;7.67;;;;;;;;5110308;28;8785;-73
2023/06/22 14:32:51;;;;;;;;;7.67;7.00;;;;;;;;5110681;28;9774;-71
2023/06/22 14:35:17;;;;;;;;;8.67;8.67;;;;;;;;5101405;28;8820;-72
2023/06/22 14:37:42;;;;;;;;;9.00;7.00;;;;;;;;5100100;28;8823;-71
2023/06/22 14:40:07;;;;;;;;;10.00;10.00;;;;;;;;5097970;28;8780;-72
2023/06/22 14:42:36;;;;;;;;;10.33;9.00;;;;;;;;5096279;28;8827;-71
2023/06/22 14:45:01;;;;;;;;;9.50;7.25;;;;;;;;5101289;28;8821;-71
2023/06/22 14:47:27;;;;;;;;;10.33;9.33;;;;;;;;5100482;28;8847;-71
2023/06/22 14:49:52;;;;;;;;;10.00;8.67;;;;;;;;5100615;28;8799;-72
2023/06/22 14:52:17;;;;;;;;;9.00;8.67;;;;;;;;5093546;28;8820;-72
2023/06/22 14:54:42;;;;;;;;;9.00;7.67;;;;;;;;5099954;28;8854;-71
2023/06/22 14:57:08;;;;;;;;;8.33;8.33;;;;;;;;5104054;28;8817;-71
2023/06/22 14:59:33;;;;;;;;;10.00;10.00;;;;;;;;5110081;28;8773;-71
2023/06/22 15:01:59;;;;;;;;;9.00;7.67;;;;;;;;5109655;28;9107;-71
2023/06/22 15:04:24;;;;;;;;;9.00;9.00;;;;;;;;5108879;28;9005;-71
2023/06/22 15:06:49;;;;;;;;;11.00;9.00;;;;;;;;5095879;28;8800;-72
2023/06/22 15:09:15;;;;;;;;;6.33;6.33;;;;;;;;5089412;28;8892;-72
2023/06/22 15:11:40;;;;;;;;;8.67;8.00;;;;;;;;5089446;28;8800;-71
2023/06/22 15:14:05;;;;;;;;;6.00;6.00;;;;;;;;5090693;28;8844;-70
2023/06/22 15:16:31;;;;;;;;;7.67;7.67;;;;;;;;5087832;28;8800;-70
2023/06/22 15:18:56;;;;;;;;;10.00;7.67;;;;;;;;5104538;28;8805;-72
2023/06/22 15:21:21;;;;;;;;;10.67;7.67;;;;;;;;5109554;28;8782;-71
2023/06/22 15:23:47;;;;;;;;;10.67;8.00;;;;;;;;5109766;28;8844;-71
2023/06/22 15:26:12;;;;;;;;;9.33;8.00;;;;;;;;5100447;28;8824;-71
2023/06/22 15:28:39;;;;;;;;;7.00;7.00;;;;;;;;5098211;28;8842;-71
2023/06/22 15:31:04;;;;;;;;;9.50;9.50;;;;;;;;5089071;28;8845;-73
2023/06/22 15:33:32;;;;;;;;;9.00;8.33;;;;;;;;5089291;28;8856;-74
2023/06/22 15:35:57;;;;;;;;;8.00;7.50;;;;;;;;5088610;28;9814;-75
2023/06/22 15:38:23;;;;;;;;;5.67;5.67;;;;;;;;5089027;28;8961;-81
2023/06/22 15:40:48;;;;;;;;;11.67;8.00;;;;;;;;5092767;28;8804;-79
2023/06/22 15:43:14;;;;;;;;;7.00;7.00;;;;;;;;5090130;28;8827;-78
2023/06/22 15:45:39;;;;;;;;;11.00;9.00;;;;;;;;5085859;28;8820;-76
2023/06/22 15:48:04;;;;;;;;;7.67;7.00;;;;;;;;5090014;28;8804;-77
2023/06/22 15:50:29;;;;;;;;;10.33;9.00;;;;;;;;5112251;28;8912;-74
2023/06/22 15:52:55;;;;;;;;;9.33;8.00;;;;;;;;5102123;28;8815;-73
2023/06/22 15:55:20;;;;;;;;;6.67;6.33;;;;;;;;5101495;28;8789;-74
2023/06/22 15:57:46;;;;;;;;;7.67;7.67;;;;;;;;5099835;28;8910;-74
2023/06/22 16:00:13;;;;;;;;;10.33;9.00;;;;;;;;5101435;28;8795;-73
2023/06/22 16:02:39;;;;;;;;;9.50;8.00;;;;;;;;5101471;28;8843;-72
2023/06/22 16:05:04;;;;;;;;;9.67;8.00;;;;;;;;5092744;28;8804;-72
2023/06/22 16:07:29;;;;;;;;;6.00;6.00;;;;;;;;5091146;28;8788;-73
2023/06/22 16:09:55;;;;;;;;;10.33;8.00;;;;;;;;5092122;28;8788;-78
2023/06/22 16:12:20;;;;;;;;;6.00;6.00;;;;;;;;5092565;28;8787;-73
2023/06/22 16:14:45;;;;;;;;;7.00;7.00;;;;;;;;5089724;28;8879;-73
2023/06/22 16:17:11;;;;;;;;;9.67;8.33;;;;;;;;5092130;28;8918;-72
2023/06/22 16:19:36;;;;;;;;;8.67;6.33;;;;;;;;5098069;28;8768;-76
2023/06/22 16:22:01;;;;;;;;;7.67;7.67;;;;;;;;5091881;28;9907;-73
2023/06/22 16:24:27;;;;;;;;;7.00;7.00;;;;;;;;5090897;28;8804;-76
2023/06/22 16:26:52;;;;;;;;;6.50;5.25;;;;;;;;5091729;28;8934;-73
2023/06/22 16:29:18;;;;;;;;;5.67;5.67;;;;;;;;5091557;28;8808;-75
2023/06/22 16:31:43;;;;;;;;;7.00;6.00;;;;;;;;5093423;28;8958;-75
2023/06/22 16:34:08;;;;;;;;;6.67;6.67;;;;;;;;5094398;28;8966;-74
2023/06/22 16:36:33;;;;;;;;;6.67;6.00;;;;;;;;5092943;28;9621;-75
2023/06/22 16:38:59;;;;;;;;;8.33;7.33;;;;;;;;5091868;28;8904;-74
2023/06/22 16:41:25;;;;;;;;;9.00;8.00;;;;;;;;5092832;28;9586;-74
2023/06/22 16:43:51;;;;;;;;;8.25;7.25;;;;;;;;5092520;28;8804;-74
2023/06/22 16:46:16;;;;;;;;;7.33;6.00;;;;;;;;5092762;28;8796;-71
2023/06/22 16:48:41;;;;;;;;;11.67;9.00;;;;;;;;5096765;28;8793;-72
2023/06/22 16:51:06;;;;;;;;;13.00;9.33;;;;;;;;5112441;28;8832;-73
